sensor_id;sensor_type;location;lat;lon;timestamp;temperature;humidity
12870;DHT22;6503;48.572;13.460;2023-03-23T02:10:48;7.70;99.90
12870;DHT22;6503;48.572;13.460;2023-03-23T02:13:15;7.70;99.90
12870;DHT22;6503;48.572;13.460;2023-03-23T02:15:56;7.70;99.90
12870;DHT22;6503;48.572;13.460;2023-03-23T02:18:44;7.70;99.90
12870;DHT22;6503;48.572;13.460;2023-03-23T02:21:57;7.60;99.90
12870;DHT22;6503;48.572;13.460;2023-03-23T02:24:56;7.60;99.90
12870;DHT22;6503;48.572;13.460;2023-03-23T02:30:46;7.20;99.90
12870;DHT22;6503;48.572;13.460;2023-03-23T02:33:45;7.30;99.90
12870;DHT22;6503;48.572;13.460;2023-03-23T02:36:20;7.30;99.90
12870;DHT22;6503;48.572;13.460;2023-03-23T02:39:00;7.30;99.90
12870;DHT22;6503;48.572;13.460;2023-03-23T02:41:32;7.20;99.90
12870;DHT22;6503;48.572;13.460;2023-03-23T02:44:02;7.10;99.90
12870;DHT22;6503;48.572;13.460;2023-03-23T02:46:30;7.10;99.90
12870;DHT22;6503;48.572;13.460;2023-03-23T02:49:01;7.20;99.90
12870;DHT22;6503;48.572;13.460;2023-03-23T02:51:30;7.20;99.90
12870;DHT22;6503;48.572;13.460;2023-03-23T02:53:58;7.20;99.90
12870;DHT22;6503;48.572;13.460;2023-03-23T02:56:26;7.20;99.90
12870;DHT22;6503;48.572;13.460;2023-03-23T02:58:55;7.20;99.90
12870;DHT22;6503;48.572;13.460;2023-03-23T03:01:50;7.20;99.90
12870;DHT22;6503;48.572;13.460;2023-03-23T03:04:22;7.20;99.90
12870;DHT22;6503;48.572;13.460;2023-03-23T03:07:05;7.20;99.90
12870;DHT22;6503;48.572;13.460;2023-03-23T03:09:41;7.20;99.90
12870;DHT22;6503;48.572;13.460;2023-03-23T03:12:14;7.10;99.90
12870;DHT22;6503;48.572;13.460;2023-03-23T03:14:51;7.20;99.90
12870;DHT22;6503;48.572;13.460;2023-03-23T03:17:24;7.20;99.90
12870;DHT22;6503;48.572;13.460;2023-03-23T03:19:56;7.10;99.90
12870;DHT22;6503;48.572;13.460;2023-03-23T03:22:28;7.10;99.90
12870;DHT22;6503;48.572;13.460;2023-03-23T03:24:57;7.10;99.90
12870;DHT22;6503;48.572;13.460;2023-03-23T03:27:25;7.00;99.90
12870;DHT22;6503;48.572;13.460;2023-03-23T03:29:55;7.00;99.90
12870;DHT22;6503;48.572;13.460;2023-03-23T03:32:28;7.00;99.90
12870;DHT22;6503;48.572;13.460;2023-03-23T03:35:00;7.00;99.90
12870;DHT22;6503;48.572;13.460;2023-03-23T03:37:33;6.90;99.90
12870;DHT22;6503;48.572;13.460;2023-03-23T03:40:04;6.90;99.90
12870;DHT22;6503;48.572;13.460;2023-03-23T03:42:36;6.90;99.90
12870;DHT22;6503;48.572;13.460;2023-03-23T03:45:04;6.80;99.90
12870;DHT22;6503;48.572;13.460;2023-03-23T03:47:34;6.80;99.90
12870;DHT22;6503;48.572;13.460;2023-03-23T03:50:03;6.80;99.90
12870;DHT22;6503;48.572;13.460;2023-03-23T03:52:31;6.80;99.90
12870;DHT22;6503;48.572;13.460;2023-03-23T03:54:58;6.80;99.90
12870;DHT22;6503;48.572;13.460;2023-03-23T03:57:25;6.80;99.90
12870;DHT22;6503;48.572;13.460;2023-03-23T03:59:52;6.80;99.90
12870;DHT22;6503;48.572;13.460;2023-03-23T04:02:19;6.90;99.90
12870;DHT22;6503;48.572;13.460;2023-03-23T04:04:50;6.80;99.90
12870;DHT22;6503;48.572;13.460;2023-03-23T04:07:20;6.70;99.90
12870;DHT22;6503;48.572;13.460;2023-03-23T04:09:47;6.70;99.90
12870;DHT22;6503;48.572;13.460;2023-03-23T04:12:15;6.70;99.90
12870;DHT22;6503;48.572;13.460;2023-03-23T04:14:42;6.70;99.90
12870;DHT22;6503;48.572;13.460;2023-03-23T04:17:09;6.60;99.90
12870;DHT22;6503;48.572;13.460;2023-03-23T04:19:37;6.40;99.90
12870;DHT22;6503;48.572;13.460;2023-03-23T04:22:05;6.30;99.90
12870;DHT22;6503;48.572;13.460;2023-03-23T04:24:33;6.40;99.90
12870;DHT22;6503;48.572;13.460;2023-03-23T04:27:01;6.50;99.90
12870;DHT22;6503;48.572;13.460;2023-03-23T04:29:28;6.40;99.90
12870;DHT22;6503;48.572;13.460;2023-03-23T04:31:55;6.50;99.90
12870;DHT22;6503;48.572;13.460;2023-03-23T04:34:23;6.50;99.90
12870;DHT22;6503;48.572;13.460;2023-03-23T04:36:50;6.50;99.90
12870;DHT22;6503;48.572;13.460;2023-03-23T04:39:18;6.50;99.90
12870;DHT22;6503;48.572;13.460;2023-03-23T04:41:47;6.50;99.90
12870;DHT22;6503;48.572;13.460;2023-03-23T04:44:14;6.40;99.90
12870;DHT22;6503;48.572;13.460;2023-03-23T04:46:44;6.50;99.90
12870;DHT22;6503;48.572;13.460;2023-03-23T04:49:15;6.50;99.90
12870;DHT22;6503;48.572;13.460;2023-03-23T04:51:47;6.40;99.90
12870;DHT22;6503;48.572;13.460;2023-03-23T04:54:14;6.40;99.90
12870;DHT22;6503;48.572;13.460;2023-03-23T04:56:41;6.30;99.90
12870;DHT22;6503;48.572;13.460;2023-03-23T04:59:10;6.30;99.90
12870;DHT22;6503;48.572;13.460;2023-03-23T05:01:38;6.30;99.90
12870;DHT22;6503;48.572;13.460;2023-03-23T05:04:10;6.30;99.90
12870;DHT22;6503;48.572;13.460;2023-03-23T05:06:38;6.20;99.90
12870;DHT22;6503;48.572;13.460;2023-03-23T05:09:06;6.20;99.90
12870;DHT22;6503;48.572;13.460;2023-03-23T05:11:33;6.30;99.90
12870;DHT22;6503;48.572;13.460;2023-03-23T05:14:00;6.30;99.90
12870;DHT22;6503;48.572;13.460;2023-03-23T05:16:29;6.40;99.90
12870;DHT22;6503;48.572;13.460;2023-03-23T05:18:56;6.40;99.90
12870;DHT22;6503;48.572;13.460;2023-03-23T05:21:49;6.40;99.90
12870;DHT22;6503;48.572;13.460;2023-03-23T05:24:16;6.40;99.90
12870;DHT22;6503;48.572;13.460;2023-03-23T05:26:43;6.40;99.90
12870;DHT22;6503;48.572;13.460;2023-03-23T05:29:13;6.50;99.90
12870;DHT22;6503;48.572;13.460;2023-03-23T05:31:43;6.40;99.90
12870;DHT22;6503;48.572;13.460;2023-03-23T05:34:10;6.40;99.90
12870;DHT22;6503;48.572;13.460;2023-03-23T05:36:38;6.50;99.90
12870;DHT22;6503;48.572;13.460;2023-03-23T05:39:05;6.50;99.90
12870;DHT22;6503;48.572;13.460;2023-03-23T05:41:35;6.60;99.90
12870;DHT22;6503;48.572;13.460;2023-03-23T05:44:03;6.50;99.90
12870;DHT22;6503;48.572;13.460;2023-03-23T05:46:30;6.50;99.90
12870;DHT22;6503;48.572;13.460;2023-03-23T05:48:59;6.60;99.90
12870;DHT22;6503;48.572;13.460;2023-03-23T05:51:26;6.50;99.90
12870;DHT22;6503;48.572;13.460;2023-03-23T05:53:53;6.40;99.90
12870;DHT22;6503;48.572;13.460;2023-03-23T05:56:20;6.50;99.90
12870;DHT22;6503;48.572;13.460;2023-03-23T05:58:48;6.50;99.90
12870;DHT22;6503;48.572;13.460;2023-03-23T06:01:15;6.50;99.90
12870;DHT22;6503;48.572;13.460;2023-03-23T06:03:42;6.50;99.90
12870;DHT22;6503;48.572;13.460;2023-03-23T06:06:11;6.50;99.90
12870;DHT22;6503;48.572;13.460;2023-03-23T06:08:38;6.60;99.90
12870;DHT22;6503;48.572;13.460;2023-03-23T06:11:05;6.70;99.90
12870;DHT22;6503;48.572;13.460;2023-03-23T06:13:33;6.80;99.90
12870;DHT22;6503;48.572;13.460;2023-03-23T06:16:01;6.80;99.90
12870;DHT22;6503;48.572;13.460;2023-03-23T06:18:29;6.90;99.90
12870;DHT22;6503;48.572;13.460;2023-03-23T06:20:59;7.00;99.90
12870;DHT22;6503;48.572;13.460;2023-03-23T06:37:12;7.30;99.90
12870;DHT22;6503;48.572;13.460;2023-03-23T06:40:18;7.30;99.90
12870;DHT22;6503;48.572;13.460;2023-03-23T06:42:48;7.30;99.90
12870;DHT22;6503;48.572;13.460;2023-03-23T06:45:15;7.30;99.90
12870;DHT22;6503;48.572;13.460;2023-03-23T06:47:51;7.50;99.90
12870;DHT22;6503;48.572;13.460;2023-03-23T06:50:25;7.60;99.90
12870;DHT22;6503;48.572;13.460;2023-03-23T06:52:54;7.70;99.90
12870;DHT22;6503;48.572;13.460;2023-03-23T06:55:27;7.70;99.90
12870;DHT22;6503;48.572;13.460;2023-03-23T06:57:56;7.80;99.90
12870;DHT22;6503;48.572;13.460;2023-03-23T07:00:29;7.80;99.90
12870;DHT22;6503;48.572;13.460;2023-03-23T07:02:58;7.80;99.90
12870;DHT22;6503;48.572;13.460;2023-03-23T07:05:35;7.80;99.90
12870;DHT22;6503;48.572;13.460;2023-03-23T07:08:09;7.80;99.90
12870;DHT22;6503;48.572;13.460;2023-03-23T07:10:38;7.90;99.90
12870;DHT22;6503;48.572;13.460;2023-03-23T07:13:05;7.90;99.90
12870;DHT22;6503;48.572;13.460;2023-03-23T07:15:38;7.90;99.90
12870;DHT22;6503;48.572;13.460;2023-03-23T07:18:06;7.90;99.90
12870;DHT22;6503;48.572;13.460;2023-03-23T07:20:36;8.00;99.90
12870;DHT22;6503;48.572;13.460;2023-03-23T07:23:04;8.10;99.90
12870;DHT22;6503;48.572;13.460;2023-03-23T07:25:48;8.30;99.90
12870;DHT22;6503;48.572;13.460;2023-03-23T07:28:17;8.50;99.90
12870;DHT22;6503;48.572;13.460;2023-03-23T07:30:46;8.60;99.90
12870;DHT22;6503;48.572;13.460;2023-03-23T07:33:16;8.90;99.90
12870;DHT22;6503;48.572;13.460;2023-03-23T07:35:44;9.00;99.90
12870;DHT22;6503;48.572;13.460;2023-03-23T07:38:13;9.20;99.90
12870;DHT22;6503;48.572;13.460;2023-03-23T07:40:43;9.30;99.90
12870;DHT22;6503;48.572;13.460;2023-03-23T07:43:13;9.50;99.90
12870;DHT22;6503;48.572;13.460;2023-03-23T07:45:40;9.60;99.90
12870;DHT22;6503;48.572;13.460;2023-03-23T07:48:08;9.60;99.90
12870;DHT22;6503;48.572;13.460;2023-03-23T07:50:36;9.70;99.90
12870;DHT22;6503;48.572;13.460;2023-03-23T07:53:06;9.70;99.90
12870;DHT22;6503;48.572;13.460;2023-03-23T07:55:33;9.80;99.90
12870;DHT22;6503;48.572;13.460;2023-03-23T07:58:01;9.80;99.90
12870;DHT22;6503;48.572;13.460;2023-03-23T08:00:38;10.00;99.90
12870;DHT22;6503;48.572;13.460;2023-03-23T08:03:06;10.10;99.90
12870;DHT22;6503;48.572;13.460;2023-03-23T08:05:35;10.20;99.90
12870;DHT22;6503;48.572;13.460;2023-03-23T08:08:03;10.40;99.90
12870;DHT22;6503;48.572;13.460;2023-03-23T08:10:33;10.60;99.90
12870;DHT22;6503;48.572;13.460;2023-03-23T08:13:01;10.60;99.90
12870;DHT22;6503;48.572;13.460;2023-03-23T08:15:31;10.90;99.90
12870;DHT22;6503;48.572;13.460;2023-03-23T08:18:07;10.90;99.90
12870;DHT22;6503;48.572;13.460;2023-03-23T08:20:34;11.00;99.90
12870;DHT22;6503;48.572;13.460;2023-03-23T08:23:03;11.10;99.90
12870;DHT22;6503;48.572;13.460;2023-03-23T08:25:34;11.20;99.90
12870;DHT22;6503;48.572;13.460;2023-03-23T08:28:02;11.40;99.90
12870;DHT22;6503;48.572;13.460;2023-03-23T08:30:31;11.50;99.90
12870;DHT22;6503;48.572;13.460;2023-03-23T08:33:03;11.70;99.90
12870;DHT22;6503;48.572;13.460;2023-03-23T08:35:37;11.90;99.90
12870;DHT22;6503;48.572;13.460;2023-03-23T08:38:05;12.10;99.90
12870;DHT22;6503;48.572;13.460;2023-03-23T08:40:32;12.10;99.90
12870;DHT22;6503;48.572;13.460;2023-03-23T08:43:03;12.10;99.90
12870;DHT22;6503;48.572;13.460;2023-03-23T08:45:31;12.20;99.90
12870;DHT22;6503;48.572;13.460;2023-03-23T08:47:59;12.50;99.90
12870;DHT22;6503;48.572;13.460;2023-03-23T08:50:28;12.70;99.90
12870;DHT22;6503;48.572;13.460;2023-03-23T08:52:56;12.90;99.90
12870;DHT22;6503;48.572;13.460;2023-03-23T08:55:24;13.10;99.90
12870;DHT22;6503;48.572;13.460;2023-03-23T08:57:51;13.20;99.90
12870;DHT22;6503;48.572;13.460;2023-03-23T09:00:21;13.50;99.90
12870;DHT22;6503;48.572;13.460;2023-03-23T09:02:52;13.60;99.90
12870;DHT22;6503;48.572;13.460;2023-03-23T09:05:20;13.70;99.90
12870;DHT22;6503;48.572;13.460;2023-03-23T09:07:53;13.90;99.90
12870;DHT22;6503;48.572;13.460;2023-03-23T09:10:21;14.00;99.90
12870;DHT22;6503;48.572;13.460;2023-03-23T09:12:51;14.00;99.90
12870;DHT22;6503;48.572;13.460;2023-03-23T09:15:19;14.20;99.90
12870;DHT22;6503;48.572;13.460;2023-03-23T09:17:48;14.20;99.90
12870;DHT22;6503;48.572;13.460;2023-03-23T09:20:18;14.20;99.90
12870;DHT22;6503;48.572;13.460;2023-03-23T09:22:48;14.20;99.90
12870;DHT22;6503;48.572;13.460;2023-03-23T09:25:19;14.30;99.90
12870;DHT22;6503;48.572;13.460;2023-03-23T09:27:52;14.30;99.90
12870;DHT22;6503;48.572;13.460;2023-03-23T09:30:23;14.30;99.90
12870;DHT22;6503;48.572;13.460;2023-03-23T09:32:53;14.30;99.90
12870;DHT22;6503;48.572;13.460;2023-03-23T09:35:26;14.30;99.90
12870;DHT22;6503;48.572;13.460;2023-03-23T09:37:57;14.40;99.90
12870;DHT22;6503;48.572;13.460;2023-03-23T09:40:30;14.50;99.90
12870;DHT22;6503;48.572;13.460;2023-03-23T09:43:11;14.80;99.90
12870;DHT22;6503;48.572;13.460;2023-03-23T09:45:47;15.00;99.90
12870;DHT22;6503;48.572;13.460;2023-03-23T09:48:38;15.10;99.90
12870;DHT22;6503;48.572;13.460;2023-03-23T09:51:14;15.20;99.90
12870;DHT22;6503;48.572;13.460;2023-03-23T09:53:47;15.40;99.90
12870;DHT22;6503;48.572;13.460;2023-03-23T09:56:17;15.50;99.90
12870;DHT22;6503;48.572;13.460;2023-03-23T09:58:48;15.70;99.90
12870;DHT22;6503;48.572;13.460;2023-03-23T10:01:23;15.90;99.90
12870;DHT22;6503;48.572;13.460;2023-03-23T10:03:58;16.10;99.90
12870;DHT22;6503;48.572;13.460;2023-03-23T10:06:27;16.20;99.90
12870;DHT22;6503;48.572;13.460;2023-03-23T10:09:02;16.30;99.90
12870;DHT22;6503;48.572;13.460;2023-03-23T10:11:45;16.50;99.90
12870;DHT22;6503;48.572;13.460;2023-03-23T10:14:23;16.60;99.90
12870;DHT22;6503;48.572;13.460;2023-03-23T10:16:58;16.80;99.90
12870;DHT22;6503;48.572;13.460;2023-03-23T10:19:31;16.90;99.90
12870;DHT22;6503;48.572;13.460;2023-03-23T10:22:47;17.00;99.90
12870;DHT22;6503;48.572;13.460;2023-03-23T10:39:22;18.10;95.20
12870;DHT22;6503;48.572;13.460;2023-03-23T10:41:51;18.30;94.20
12870;DHT22;6503;48.572;13.460;2023-03-23T10:44:20;18.50;93.00
12870;DHT22;6503;48.572;13.460;2023-03-23T10:46:55;18.60;91.70
12870;DHT22;6503;48.572;13.460;2023-03-23T10:49:26;18.60;89.70
12870;DHT22;6503;48.572;13.460;2023-03-23T10:51:59;18.70;87.30
12870;DHT22;6503;48.572;13.460;2023-03-23T10:54:35;18.70;86.40
12870;DHT22;6503;48.572;13.460;2023-03-23T10:57:12;18.90;83.20
12870;DHT22;6503;48.572;13.460;2023-03-23T10:59:40;19.10;77.20
12870;DHT22;6503;48.572;13.460;2023-03-23T11:02:16;19.30;70.80
12870;DHT22;6503;48.572;13.460;2023-03-23T11:05:00;19.50;67.30
12870;DHT22;6503;48.572;13.460;2023-03-23T11:07:32;19.70;66.20
12870;DHT22;6503;48.572;13.460;2023-03-23T11:10:15;19.70;66.80
12870;DHT22;6503;48.572;13.460;2023-03-23T11:12:45;19.80;65.30
12870;DHT22;6503;48.572;13.460;2023-03-23T11:15:29;19.80;44.90
12870;DHT22;6503;48.572;13.460;2023-03-23T11:17:59;19.90;42.30
12870;DHT22;6503;48.572;13.460;2023-03-23T11:20:27;19.90;41.80
12870;DHT22;6503;48.572;13.460;2023-03-23T11:23:09;19.90;43.40
12870;DHT22;6503;48.572;13.460;2023-03-23T11:25:55;20.00;43.10
12870;DHT22;6503;48.572;13.460;2023-03-23T11:28:31;19.90;39.30
12870;DHT22;6503;48.572;13.460;2023-03-23T11:31:02;19.80;38.40
12870;DHT22;6503;48.572;13.460;2023-03-23T11:33:46;20.00;38.20
12870;DHT22;6503;48.572;13.460;2023-03-23T11:36:15;20.20;35.10
12870;DHT22;6503;48.572;13.460;2023-03-23T11:38:48;20.40;32.80
12870;DHT22;6503;48.572;13.460;2023-03-23T11:41:19;20.40;32.00
12870;DHT22;6503;48.572;13.460;2023-03-23T11:43:52;20.40;34.30
12870;DHT22;6503;48.572;13.460;2023-03-23T11:46:29;20.40;32.50
12870;DHT22;6503;48.572;13.460;2023-03-23T11:49:01;20.40;34.50
12870;DHT22;6503;48.572;13.460;2023-03-23T11:51:36;20.50;33.70
12870;DHT22;6503;48.572;13.460;2023-03-23T11:54:11;20.70;32.60
12870;DHT22;6503;48.572;13.460;2023-03-23T11:56:46;20.80;31.70
12870;DHT22;6503;48.572;13.460;2023-03-23T11:59:31;20.80;34.00
12870;DHT22;6503;48.572;13.460;2023-03-23T12:02:22;20.80;34.10
12870;DHT22;6503;48.572;13.460;2023-03-23T12:05:34;20.80;34.50
12870;DHT22;6503;48.572;13.460;2023-03-23T12:40:35;20.00;26.40
12870;DHT22;6503;48.572;13.460;2023-03-23T12:43:13;19.90;26.60
12870;DHT22;6503;48.572;13.460;2023-03-23T12:45:58;19.80;26.80
12870;DHT22;6503;48.572;13.460;2023-03-23T12:48:33;19.70;27.20
12870;DHT22;6503;48.572;13.460;2023-03-23T12:51:21;19.70;27.70
12870;DHT22;6503;48.572;13.460;2023-03-23T12:53:57;19.60;28.10
12870;DHT22;6503;48.572;13.460;2023-03-23T12:56:32;19.50;28.50
12870;DHT22;6503;48.572;13.460;2023-03-23T12:59:06;19.40;29.00
12870;DHT22;6503;48.572;13.460;2023-03-23T13:01:38;19.40;29.60
12870;DHT22;6503;48.572;13.460;2023-03-23T13:04:10;19.40;29.70
12870;DHT22;6503;48.572;13.460;2023-03-23T13:06:39;19.30;30.90
12870;DHT22;6503;48.572;13.460;2023-03-23T13:09:14;19.30;29.90
12870;DHT22;6503;48.572;13.460;2023-03-23T13:11:44;19.30;30.70
12870;DHT22;6503;48.572;13.460;2023-03-23T13:14:34;19.40;31.10
12870;DHT22;6503;48.572;13.460;2023-03-23T13:17:10;19.40;32.30
12870;DHT22;6503;48.572;13.460;2023-03-23T13:20:00;19.40;31.20
12870;DHT22;6503;48.572;13.460;2023-03-23T13:22:36;19.40;30.40
12870;DHT22;6503;48.572;13.460;2023-03-23T13:25:09;19.40;32.00
12870;DHT22;6503;48.572;13.460;2023-03-23T13:27:40;19.40;31.80
12870;DHT22;6503;48.572;13.460;2023-03-23T13:30:20;19.30;31.10
12870;DHT22;6503;48.572;13.460;2023-03-23T13:32:50;19.40;31.20
12870;DHT22;6503;48.572;13.460;2023-03-23T13:35:20;19.40;30.50
12870;DHT22;6503;48.572;13.460;2023-03-23T13:37:50;19.40;30.50
12870;DHT22;6503;48.572;13.460;2023-03-23T14:04:13;19.50;30.90
12870;DHT22;6503;48.572;13.460;2023-03-23T14:06:41;19.50;31.90
12870;DHT22;6503;48.572;13.460;2023-03-23T14:09:14;19.40;32.60
12870;DHT22;6503;48.572;13.460;2023-03-23T14:11:48;19.30;34.90
12870;DHT22;6503;48.572;13.460;2023-03-23T14:14:22;19.40;34.50
12870;DHT22;6503;48.572;13.460;2023-03-23T14:16:51;19.40;34.30
12870;DHT22;6503;48.572;13.460;2023-03-23T14:19:24;19.30;34.90
12870;DHT22;6503;48.572;13.460;2023-03-23T14:21:55;19.40;35.10
12870;DHT22;6503;48.572;13.460;2023-03-23T14:24:24;19.40;35.40
12870;DHT22;6503;48.572;13.460;2023-03-23T14:26:54;19.30;35.80
12870;DHT22;6503;48.572;13.460;2023-03-23T14:29:28;19.40;35.20
12870;DHT22;6503;48.572;13.460;2023-03-23T14:31:58;19.40;35.70
